DLH441J DTMB-DTTA
Flight info
| Callsign | DLH441J |
|---|---|
| Flight time | N/A |
| Altitude | 12000 |
| Route | LARBI1A LARBI DCT GIBLI |
| Aircraft | A346/H-SDE2E3FGHIJ3J4J5M1RWXY/LB1D1 |
Departure
| Time | 2026-05-06 09:37 |
|---|---|
| Airport | Monastir Habib Bourguiba International Airport (DTMB) |
Arrival
| Time | N/A |
|---|---|
| Airport | Tunis Carthage International Airport (DTTA) |
| Time | Latitude | Longitude | Altitude | Speed | Heading |
|---|---|---|---|---|---|
| 2026-05-06 09:12 | 35.76196 | 10.76187 | 20 ft | 0 kts | 206° |
| 2026-05-06 09:29 | 35.76193 | 10.76185 | 20 ft | 2 kts | 206° |
| 2026-05-06 09:29 | 35.76164 | 10.76162 | 20 ft | 8 kts | 214° |
| 2026-05-06 09:29 | 35.76123 | 10.76093 | 20 ft | 12 kts | 247° |
| 2026-05-06 09:30 | 35.76090 | 10.75987 | 23 ft | 14 kts | 234° |
| 2026-05-06 09:30 | 35.76041 | 10.75875 | 19 ft | 17 kts | 254° |
| 2026-05-06 09:30 | 35.76006 | 10.75724 | 20 ft | 20 kts | 254° |
| 2026-05-06 09:30 | 35.75966 | 10.75549 | 21 ft | 22 kts | 254° |
| 2026-05-06 09:31 | 35.75951 | 10.75487 | 22 ft | 23 kts | 254° |
| 2026-05-06 09:33 | 35.75947 | 10.75469 | 21 ft | 23 kts | 254° |
| 2026-05-06 09:34 | 35.75901 | 10.75268 | 20 ft | 25 kts | 254° |
| 2026-05-06 09:34 | 35.75867 | 10.75124 | 20 ft | 26 kts | 254° |
| 2026-05-06 09:34 | 35.75798 | 10.74819 | 20 ft | 27 kts | 261° |
| 2026-05-06 09:34 | 35.75766 | 10.74610 | 20 ft | 24 kts | 254° |
| 2026-05-06 09:35 | 35.75717 | 10.74405 | 20 ft | 26 kts | 253° |
| 2026-05-06 09:35 | 35.75681 | 10.74258 | 19 ft | 27 kts | 253° |
| 2026-05-06 09:35 | 35.75627 | 10.74032 | 19 ft | 28 kts | 253° |
| 2026-05-06 09:35 | 35.75519 | 10.73823 | 19 ft | 18 kts | 181° |
| 2026-05-06 09:36 | 35.75438 | 10.73914 | 20 ft | 19 kts | 101° |
| 2026-05-06 09:36 | 35.75474 | 10.74089 | 18 ft | 49 kts | 82° |
| 2026-05-06 09:36 | 35.75633 | 10.74768 | 21 ft | 114 kts | 73° |
| 2026-05-06 09:36 | 35.76033 | 10.76443 | 96 ft | 177 kts | 73° |
| 2026-05-06 09:37 | 35.76378 | 10.77913 | 822 ft | 178 kts | 78° |
| 2026-05-06 09:37 | 35.76417 | 10.78929 | 1410 ft | 174 kts | 107° |
| 2026-05-06 09:37 | 35.75724 | 10.80106 | 2176 ft | 175 kts | 143° |
| 2026-05-06 09:37 | 35.74565 | 10.80684 | 2573 ft | 193 kts | 171° |
| 2026-05-06 09:38 | 35.73168 | 10.80388 | 2965 ft | 215 kts | 204° |
| 2026-05-06 09:38 | 35.72125 | 10.79041 | 3494 ft | 234 kts | 242° |
| 2026-05-06 09:38 | 35.71958 | 10.76959 | 4033 ft | 255 kts | 283° |
| 2026-05-06 09:38 | 35.72893 | 10.75099 | 4783 ft | 261 kts | 322° |
| 2026-05-06 09:39 | 35.74533 | 10.74201 | 5481 ft | 262 kts | 353° |
| 2026-05-06 09:39 | 35.76357 | 10.73897 | 6174 ft | 269 kts | 349° |
| 2026-05-06 09:39 | 35.78242 | 10.73339 | 6670 ft | 285 kts | 343° |
| 2026-05-06 09:39 | 35.80200 | 10.72578 | 7189 ft | 301 kts | 340° |
| 2026-05-06 09:40 | 35.82200 | 10.71711 | 7959 ft | 307 kts | 338° |
| 2026-05-06 09:40 | 35.84186 | 10.70812 | 8860 ft | 309 kts | 336° |
| 2026-05-06 09:40 | 35.88249 | 10.68932 | 10596 ft | 316 kts | 335° |
| 2026-05-06 09:41 | 35.90358 | 10.67938 | 11110 ft | 332 kts | 335° |
| 2026-05-06 09:41 | 35.92578 | 10.66893 | 11573 ft | 350 kts | 336° |
| 2026-05-06 09:41 | 35.94910 | 10.65800 | 11948 ft | 360 kts | 336° |
| 2026-05-06 09:41 | 35.97280 | 10.64695 | 11954 ft | 360 kts | 336° |